Stanley, NY (14561)

12:55 AM EDT on September 03, 2015 (GMT -0400)
Square Acre Farms | | Change Station
CLOSE
Current Station
Personal Weather Station
Location: Stanley, NY
Elevation: 892 ft
Nearby Weather Stations

Elev 892 ft 42.82 °N, 77.08 °W | Updated 7 minutes ago

Clear
Clear
67.8 °F
Feels Like 67.8 °F
N
3.2
Wind Variable Wind from SW

Today
High -- | Low -- °F
--% Chance of Precip.
Yesterday
High -- | Low -- °F
Precip. -- in
6:34 AM 7:39 PM
Waning Gibbous, 74% visible
Pressure 29.95 in
Visibility 5.0 miles
Clouds Clear
Dew Point 65 °F
Humidity 91%
Rainfall 0.00 in
Snow Depth Not available.
UV 0 out of 12
Pollen 10.20 out of 12
Air Quality Not available.
Flu Activity Not available.
METAR KPEO 030353Z AUTO 22004KT 5SM BR CLR 22/20 A2997 RMK AO2 SLP141 T02220200
Pressure 29.95 in
Visibility 5.0 miles
Clouds Clear
Dew Point 65 °F
Humidity 91%
Rainfall 0.00 in
Snow Depth Not available.
UV 0 out of 12
Pollen 10.20 out of 12
Air Quality Not available.
Flu Activity Not available.
METAR KPEO 030353Z AUTO 22004KT 5SM BR CLR 22/20 A2997 RMK AO2 SLP141 T02220200

10-Day Weather Forecast

×

Almanac

Astronomy

Sep. 03, 2015 Rise Set
Actual Time
Civil Twilight
Nautical Twilight
Astronomical Twilight
Moon
Length of Visible Light
Length of Day
Tomorrow will be .
, % of the Moon is Illuminated

Today's Extremes

State Highs State Lows

Community

WunderPhotos

Upload Photos

1,851,913 photos uploaded!

WunderBlogs® & News

Nearby

Air Quality

  Air Quality AQ Index Pollutant
Not available.

Snow Depth

Station Depth Elevation

Earthquake Activity

City Distance Mag. Time & Date
Minimum magnitude displayed is 2.5.

Coastal Water Temperatures

Place Temperature

Stations

Nearby Weather Stations

Station Location Temp. Windchill Dew Point Humidity Wind Precip. Elev Updated Type